• Join FlightAware (Why Join?)
  • Login
  • US Flag 
12:23AM EST


 

Airport Tracker/Info


-or-


 

Live Flight TrackerFlight Track Log ✈ JZA8745 ✈ 15-May-2013 ✈ CZBF - CYUL

Flight Track Log - Related Links

Times and Time Zones

All times are in EDT time to prevent confusion due to time zone crossing. See the JZA8745 flight status page for this flight to view local times or setup timezone preferences in your user account.

Time Position Orientation Groundspeed Altitude Reporting Facility
EDT Latitude Longitude Course Direction KTS MPH feet Rate Location/Type
03:00PM 47.5500 -65.9167 244° Southwest 140 161 6,200  Level Moncton Center
03:01PM 47.5333 -65.9667 244° Southwest 140 161 7,900 1,560 Climbing Moncton Center
03:02PM 47.5167 -66.0167 244° Southwest 140 161 9,400 1,140 Climbing Moncton Center
03:03PM 47.5000 -66.0833 250° West 170 196 10,200 900 Climbing Moncton Center
03:04PM 47.4667 -66.1500 234° Southwest 190 219 11,200 1,020 Climbing Moncton Center
03:05PM 47.4500 -66.2333 254° West 190 219 12,300 960 Climbing Moncton Center
03:06PM 47.4928 -66.1216 244° Southwest  Level FlightAware Approximate
03:06PM 47.4167 -66.3000 234° Southwest 200 230 13,200  Level Moncton Center
03:07PM 47.4000 -66.3833 254° West 200 230 14,200 900 Climbing Moncton Center
03:08PM 47.3667 -66.4500 234° Southwest 200 230 15,100 900 Climbing Moncton Center
03:09PM 47.3500 -66.5167 250° West 210 242 16,100 900 Climbing Moncton Center
03:10PM 47.3167 -66.6000 239° Southwest 210 242 16,900 840 Climbing Moncton Center
03:11PM 47.3000 -66.6667 250° West 200 230 17,800 900 Climbing Moncton Center
03:12PM 47.2500 -66.7333 222° Southwest 200 230 18,700 780 Climbing Moncton Center
03:13PM 47.2333 -66.8167 254° West 210 242 19,400 720 Climbing Moncton Center
03:14PM 47.2000 -66.8833 234° Southwest 210 242 20,200 660 Climbing Moncton Center
03:15PM 47.1833 -66.9667 254° West 210 242 20,800 300 Climbing Moncton Center
03:16PM 47.1500 -67.0333 234° Southwest 210 242 20,800 420 Level Moncton Center
03:18PM 47.1167 -67.1167 240° Southwest 210 242 22,000 480 Climbing Montreal Center
03:18PM 47.0950 -67.2389 255° West 235 270 22,000  Level Boston Center
03:19PM 47.0611 -67.3214 239° Southwest 241 277 22,000  Level Boston Center
03:20PM 47.0278 -67.4158 243° Southwest 253 291 22,000  Level Boston Center
03:21PM 46.9922 -67.5103 241° Southwest 259 298 22,000  Level Boston Center
03:22PM 46.9586 -67.6047 242° Southwest 265 305 22,000  Level Boston Center
03:23PM 46.9225 -67.6928 239° Southwest 265 305 22,000  Level Boston Center
03:24PM 46.8889 -67.7869 242° Southwest 265 305 22,000  Level Boston Center
03:25PM 46.8550 -67.8808 242° Southwest 265 305 22,000  Level Boston Center
03:27PM 46.8181 -67.9992 246° West 281 323 22,000  Level Boston Center
03:28PM 46.7714 -68.0936 234° Southwest 276 318 22,000  Level Boston Center
03:29PM 46.7461 -68.1956 250° West 271 312 22,000  Level Boston Center
03:30PM 46.7258 -68.2700 248° West 259 298 22,000  Level Boston Center
03:31PM 46.6939 -68.3722 246° West 259 298 22,000  Level Boston Center
03:32PM 46.6658 -68.4650 246° West 259 298 22,000  Level Boston Center
03:33PM 46.6378 -68.5606 247° West 259 298 22,000  Level Boston Center
03:34PM 46.6097 -68.6503 246° West 259 298 22,000  Level Boston Center
03:35PM 46.5836 -68.7456 248° West 259 298 22,000  Level Boston Center
03:36PM 46.5553 -68.8411 247° West 259 298 22,000  Level Boston Center
03:37PM 46.5267 -68.9333 246° West 259 298 22,000  Level Boston Center
03:38PM 46.4925 -69.0439 246° West 259 298 22,000  Level Boston Center
03:39PM 46.4661 -69.1358 247° West 259 298 22,000  Level Boston Center
03:40PM 46.4372 -69.2219 244° Southwest 254 292 22,000  Level Boston Center
03:41PM 46.4103 -69.3047 245° Southwest 243 280 22,000  Level Boston Center
03:42PM 46.3856 -69.3903 247° West 243 280 22,000  Level Boston Center
03:43PM 46.3564 -69.4761 244° Southwest 243 280 22,000  Level Boston Center
03:44PM 46.3294 -69.5617 246° West 238 274 22,000  Level Boston Center
03:45PM 46.3022 -69.6472 245° Southwest 238 274 22,000  Level Boston Center
03:46PM 46.2775 -69.7386 249° West 238 274 22,000  Level Boston Center
03:47PM 46.2503 -69.8239 245° Southwest 238 274 22,000  Level Boston Center
03:48PM 46.2250 -69.9119 247° West 238 274 22,000  Level Boston Center
03:49PM 46.1897 -70.0125 243° Southwest 238 274 22,000  Level Boston Center
03:50PM 46.1622 -70.0975 245° Southwest 238 274 22,000  Level Boston Center
03:51PM 46.1333 -70.1333 221° Southwest 230 265 22,000  Level Montreal Center
03:52PM 46.1167 -70.2167 254° West 230 265 22,000  Level Montreal Center
03:53PM 46.0833 -70.3167 244° Southwest 230 265 22,000  Level Montreal Center
03:54PM 46.0500 -70.3833 234° Southwest 230 265 22,000  Level Montreal Center
03:55PM 46.0333 -70.4667 254° West 230 265 22,000  Level Montreal Center
03:56PM 46.0167 -70.5500 254° West 230 265 22,000  Level Montreal Center
03:57PM 45.9833 -70.6333 240° Southwest 230 265 22,000  Level Montreal Center
03:58PM 45.9500 -70.7167 240° Southwest 230 265 22,000  Level Montreal Center
03:59PM 45.9167 -70.7833 234° Southwest 230 265 22,000  Level Montreal Center
04:00PM 45.9000 -70.8833 257° West 220 253 22,000  Level Montreal Center
04:01PM 45.9000 -70.9833 270° West 220 253 22,000  Level Montreal Center
04:02PM 45.9000 -71.0500 270° West 220 253 22,000  Level Montreal Center
04:03PM 45.8833 -71.1500 257° West 220 253 22,000  Level Montreal Center
04:04PM 45.8667 -71.2167 250° West 220 253 22,000  Level Montreal Center
04:05PM 45.8833 -71.3167 283° West 220 253 22,000  Level Montreal Center
04:06PM 45.8667 -71.4000 254° West 210 242 22,000  Level Montreal Center
04:07PM 45.8500 -71.4833 254° West 210 242 22,000  Level Montreal Center
04:08PM 45.8500 -71.5667 270° West 210 242 22,000  Level Montreal Center
04:09PM 45.8333 -71.6667 257° West 210 242 22,000  Level Montreal Center
04:10PM 45.8333 -71.7333 270° West 210 242 22,000  Level Montreal Center
04:11PM 45.8333 -71.8333 270° West 210 242 22,000  Level Montreal Center
04:12PM 45.8167 -71.9000 250° West 210 242 22,000  Level Montreal Center
04:13PM 45.8000 -71.9833 254° West 210 242 22,000  Level Montreal Center
04:14PM 45.8000 -72.0667 270° West 210 242 22,000  Level Montreal Center
04:15PM 45.8000 -72.1500 270° West 210 242 22,000  Level Montreal Center
04:16PM 45.7833 -72.2500 257° West 210 242 22,000 -540 Level Montreal Center
04:17PM 45.7833 -72.3167 270° West 210 242 21,000 -1,200 Descending Montreal Center
04:18PM 45.7667 -72.4167 257° West 220 253 19,700 -1,380 Descending Montreal Center
04:19PM 45.7500 -72.4833 250° West 210 242 18,300 -1,500 Descending Montreal Center
04:20PM 45.7500 -72.5833 270° West 210 242 16,800 -1,440 Descending Montreal Center
04:21PM 45.7500 -72.6500 270° West 200 230 15,500 -1,440 Descending Montreal Center
04:22PM 45.7500 -72.7333 270° West 190 219 14,000 -1,800 Descending Montreal Center
04:23PM 45.7333 -72.8000 250° West 190 219 12,000 -1,980 Descending Montreal Center
04:24PM 45.7167 -72.9000 257° West 200 230 10,100 -1,740 Descending Montreal Center
04:25PM 45.7167 -72.9667 270° West 210 242 8,600 -1,080 Descending Montreal Center
04:26PM 45.7000 -73.0667 257° West 220 253 8,000 -300 Descending Montreal Center
04:27PM 45.6833 -73.1333 250° West 210 242 8,000 -420 Level Montreal Center
04:28PM 45.6667 -73.2167 254° West 200 230 7,200 -1,020 Descending Montreal Center
04:29PM 45.7000 -73.3000 300° West 220 253 6,000 -900 Descending Montreal Center
04:30PM 45.7167 -73.3833 286° West 210 242 5,500 -900 Descending Montreal Center
04:31PM 45.7000 -73.4500 250° West 170 196 4,200 -780 Descending Montreal Center
04:32PM 45.6667 -73.4667 199° South 150 173 4,000 -120 Descending Montreal Center
04:33PM 45.6333 -73.5167 226° Southwest 150 173 4,000 -240 Level Montreal Center
04:34PM 45.6000 -73.5500 215° Southwest 160 184 3,600 -780 Descending Montreal Center
04:35PM 45.5667 -73.6000 226° Southwest 160 184 2,500 -900 Descending Montreal Center
04:36PM 45.5333 -73.6500 226° Southwest 140 161 1,800 -720 Descending Montreal Center
04:37PM 45.5000 -73.6667 199° South 140 161 1,100 -720 Descending Montreal Center
04:38PM 45.4833 -73.7167 245° Southwest 110 127 400 -720 Descending Montreal Center